Time;durP1;ratioP1;P1;durP2;ratioP2;P2;SDS_P1;SDS_P2;PMS_P1;PMS_P2;Temp;Humidity;BMP_temperature;BMP_pressure;BME280_temperature;BME280_humidity;BME280_pressure;Samples;Min_cycle;Max_cycle;Signal;HPM_P1;HPM_P2
2022/07/26 00:01:01;;;;;;;4.78;1.70;;;;;;;26.69;42.71;100297.50;5061017;28;20201;-62
2022/07/26 00:03:28;;;;;;;4.22;1.48;;;;;;;26.67;42.77;100294.22;5061675;28;20237;-62
2022/07/26 00:05:56;;;;;;;6.10;1.50;;;;;;;26.65;42.93;100301.84;5059972;28;20289;-63
2022/07/26 00:08:25;;;;;;;4.57;1.67;;;;;;;26.58;42.75;100302.84;5057917;28;20213;-63
2022/07/26 00:10:53;;;;;;;3.38;1.33;;;;;;;26.55;43.03;100300.66;5066796;28;20307;-63
2022/07/26 00:13:21;;;;;;;3.80;1.45;;;;;;;26.51;43.08;100313.09;5057146;28;20584;-63
2022/07/26 00:15:49;;;;;;;3.97;1.60;;;;;;;26.46;43.19;100312.25;5058392;28;20203;-63
2022/07/26 00:18:18;;;;;;;5.10;1.30;;;;;;;26.43;43.24;100316.28;5055638;28;20376;-63
2022/07/26 00:20:45;;;;;;;2.40;1.40;;;;;;;26.42;43.16;100320.09;5059593;28;20216;-63
2022/07/26 00:23:13;;;;;;;2.53;1.25;;;;;;;26.39;43.42;100320.59;5060523;28;20231;-63
2022/07/26 00:25:42;;;;;;;3.05;1.25;;;;;;;26.35;43.41;100322.19;5058652;28;20209;-63
2022/07/26 00:28:10;;;;;;;3.05;1.40;;;;;;;26.31;43.37;100326.47;5057951;28;20212;-63
2022/07/26 00:30:39;;;;;;;3.58;1.20;;;;;;;26.32;43.51;100330.00;5061125;28;20310;-63
2022/07/26 00:33:07;;;;;;;8.23;1.45;;;;;;;26.29;43.45;100330.53;5060705;28;20227;-63
2022/07/26 00:35:35;;;;;;;3.63;1.35;;;;;;;26.26;43.46;100331.00;5057783;28;20207;-63
2022/07/26 00:38:02;;;;;;;3.55;1.50;;;;;;;26.24;43.42;100331.25;5061391;28;20670;-63
2022/07/26 00:40:30;;;;;;;3.10;1.40;;;;;;;26.18;43.54;100329.56;5063102;28;20211;-64
2022/07/26 00:43:00;;;;;;;4.57;1.80;;;;;;;26.18;43.63;100335.00;5055694;28;20206;-63
2022/07/26 00:45:27;;;;;;;3.53;1.52;;;;;;;26.18;43.48;100337.72;5061545;28;20222;-62
2022/07/26 00:47:55;;;;;;;6.05;1.60;;;;;;;26.13;43.43;100337.66;5055735;28;20252;-63
2022/07/26 00:50:23;;;;;;;4.32;1.13;;;;;;;26.12;43.64;100341.47;5061509;28;20413;-64
2022/07/26 00:52:51;;;;;;;4.85;1.50;;;;;;;26.08;43.59;100340.31;5057229;28;20244;-64
2022/07/26 00:55:19;;;;;;;2.35;1.20;;;;;;;26.02;43.77;100349.47;5041694;28;20203;-63
2022/07/26 00:57:47;;;;;;;2.45;1.30;;;;;;;25.96;43.79;100350.47;5042125;28;20208;-63
2022/07/26 01:00:19;;;;;;;5.70;1.27;;;;;;;25.90;43.91;100346.06;5036251;28;20766;-63
2022/07/26 01:02:47;;;;;;;3.38;1.58;;;;;;;25.84;43.92;100351.44;5042780;28;20684;-63
2022/07/26 01:05:16;;;;;;;2.90;1.50;;;;;;;25.85;44.19;100350.38;5037643;28;20208;-64
2022/07/26 01:07:44;;;;;;;4.43;1.55;;;;;;;25.84;43.94;100350.59;5039513;28;20209;-64
2022/07/26 01:10:12;;;;;;;2.92;1.40;;;;;;;25.81;43.79;100351.09;5037768;28;20208;-63
2022/07/26 01:12:40;;;;;;;4.25;1.30;;;;;;;25.72;43.99;100350.72;5041602;28;20231;-63
2022/07/26 01:15:10;;;;;;;4.47;1.40;;;;;;;25.71;44.23;100351.78;5041086;28;20245;-63
2022/07/26 01:17:40;;;;;;;6.28;1.90;;;;;;;25.70;44.07;100360.16;5038579;28;20862;-63
2022/07/26 01:20:10;;;;;;;5.13;1.40;;;;;;;25.65;44.28;100355.50;5043415;28;20235;-63
2022/07/26 01:22:40;;;;;;;3.50;1.42;;;;;;;25.64;44.35;100362.00;5038663;28;20227;-63
2022/07/26 01:25:09;;;;;;;4.28;1.33;;;;;;;25.65;44.34;100352.78;5038716;28;20782;-63
2022/07/26 01:27:39;;;;;;;3.50;1.50;;;;;;;25.64;44.33;100356.56;5043417;28;20726;-63
2022/07/26 01:30:09;;;;;;;5.38;1.52;;;;;;;25.60;44.51;100358.13;5041200;28;20221;-63
2022/07/26 01:32:37;;;;;;;2.67;1.27;;;;;;;25.58;44.69;100362.16;5036051;28;20595;-63
2022/07/26 01:35:07;;;;;;;2.55;1.50;;;;;;;25.56;44.54;100356.97;5035170;28;20312;-63
2022/07/26 01:37:35;;;;;;;2.53;1.27;;;;;;;25.58;44.63;100367.59;5037472;28;20728;-63
2022/07/26 01:40:05;;;;;;;4.38;1.45;;;;;;;25.58;44.71;100364.88;5038907;28;20199;-63
2022/07/26 01:42:33;;;;;;;3.15;1.30;;;;;;;25.55;44.71;100368.91;5036230;28;20208;-64
2022/07/26 01:45:01;;;;;;;4.15;1.40;;;;;;;25.45;45.16;100375.00;5037193;28;20222;-63
2022/07/26 01:47:29;;;;;;;15.60;1.83;;;;;;;25.39;45.29;100380.59;5040342;28;20290;-63
2022/07/26 01:49:57;;;;;;;3.78;1.42;;;;;;;25.35;45.31;100374.00;5038058;28;20215;-63
2022/07/26 01:52:26;;;;;;;2.80;1.35;;;;;;;25.29;45.44;100381.25;5039637;28;20218;-63
2022/07/26 01:54:54;;;;;;;2.58;1.45;;;;;;;25.24;45.65;100383.06;5040971;28;20226;-63
2022/07/26 01:57:23;;;;;;;2.60;1.30;;;;;;;25.20;45.70;100387.34;5039803;28;20368;-63
2022/07/26 01:59:51;;;;;;;2.13;1.30;;;;;;;25.18;45.83;100384.84;5035387;28;20295;-63
2022/07/26 02:02:18;;;;;;;3.13;1.67;;;;;;;25.14;45.75;100382.91;5036299;28;20213;-63
2022/07/26 02:04:58;;;;;;;4.53;1.58;;;;;;;25.08;45.89;100382.78;5040069;28;20219;-63
2022/07/26 02:07:27;;;;;;;7.88;1.75;;;;;;;25.05;46.20;100391.44;5035586;28;20844;-63
2022/07/26 02:09:56;;;;;;;6.00;1.83;;;;;;;25.05;46.16;100387.91;5040311;28;20741;-63
2022/07/26 02:12:26;;;;;;;5.40;1.40;;;;;;;25.02;46.19;100383.78;5037111;28;20259;-63
2022/07/26 02:14:53;;;;;;;2.45;1.50;;;;;;;24.95;46.40;100385.84;5043178;28;20236;-64
2022/07/26 02:17:21;;;;;;;5.10;1.52;;;;;;;24.93;46.48;100393.38;5035223;28;20222;-63
2022/07/26 02:19:49;;;;;;;4.70;1.50;;;;;;;24.90;45.98;100388.41;5037757;28;20241;-63
2022/07/26 02:22:17;;;;;;;4.75;1.50;;;;;;;24.85;46.35;100395.63;5033215;28;20216;-63
2022/07/26 02:24:46;;;;;;;4.55;1.88;;;;;;;24.77;46.55;100391.44;5037810;28;20261;-63
2022/07/26 02:27:14;;;;;;;6.43;1.50;;;;;;;24.72;46.39;100386.72;5032519;28;20215;-63
2022/07/26 02:29:44;;;;;;;3.22;1.45;;;;;;;24.74;46.26;100386.47;5037245;28;20204;-63
2022/07/26 02:32:11;;;;;;;6.78;1.65;;;;;;;24.79;46.07;100394.72;5038188;28;20583;-63
2022/07/26 02:34:39;;;;;;;4.80;2.05;;;;;;;24.80;46.12;100387.41;5036556;28;20233;-63
2022/07/26 02:37:07;;;;;;;4.40;1.40;;;;;;;24.80;45.69;100390.97;5032895;28;20219;-62
2022/07/26 02:39:35;;;;;;;5.20;1.80;;;;;;;24.83;45.85;100393.16;5038655;28;20222;-63
2022/07/26 02:42:03;;;;;;;3.67;1.67;;;;;;;24.86;45.76;100387.25;5035106;28;20224;-63
2022/07/26 02:44:31;;;;;;;3.90;1.52;;;;;;;24.81;45.81;100389.88;5039180;28;20609;-63
2022/07/26 02:47:00;;;;;;;8.30;1.88;;;;;;;24.77;45.86;100390.59;5042006;28;20204;-63
2022/07/26 02:49:27;;;;;;;4.60;1.35;;;;;;;24.76;45.97;100392.50;5035288;28;20224;-63
2022/07/26 02:51:55;;;;;;;3.40;1.63;;;;;;;24.73;45.77;100384.84;5042673;28;20846;-63
2022/07/26 02:54:23;;;;;;;4.10;1.95;;;;;;;24.71;45.78;100385.09;5060663;28;20243;-63
2022/07/26 02:56:50;;;;;;;4.82;1.90;;;;;;;24.68;45.67;100392.88;5060895;28;20246;-63
2022/07/26 02:59:18;;;;;;;5.68;1.58;;;;;;;24.69;45.69;100386.41;5059929;28;20218;-63
2022/07/26 03:01:46;;;;;;;3.25;1.50;;;;;;;24.63;45.91;100392.78;5056488;28;20209;-63
2022/07/26 03:04:15;;;;;;;5.78;1.88;;;;;;;24.61;46.07;100389.50;5054094;28;20208;-63
2022/07/26 03:06:43;;;;;;;4.30;1.70;;;;;;;24.57;46.42;100389.16;5059805;28;20607;-63
2022/07/26 03:09:11;;;;;;;4.38;1.63;;;;;;;24.59;46.51;100386.22;5056954;28;20215;-63
2022/07/26 03:11:39;;;;;;;4.15;1.58;;;;;;;24.59;46.14;100392.44;5064858;28;20208;-63
2022/07/26 03:14:07;;;;;;;5.50;1.80;;;;;;;24.60;46.30;100396.81;5059371;28;20315;-63
2022/07/26 03:16:35;;;;;;;7.57;1.92;;;;;;;24.58;46.35;100392.69;5060957;28;20208;-63
2022/07/26 03:19:03;;;;;;;3.25;1.60;;;;;;;24.56;46.52;100392.09;5055510;28;20210;-63
2022/07/26 03:21:32;;;;;;;5.07;1.92;;;;;;;24.53;46.69;100392.59;5068091;28;20672;-64
2022/07/26 03:24:00;;;;;;;5.15;1.95;;;;;;;24.39;47.15;100394.75;5058358;28;20203;-64
2022/07/26 03:26:28;;;;;;;3.00;1.73;;;;;;;24.24;47.45;100397.16;5059538;28;20211;-63
2022/07/26 03:28:56;;;;;;;4.97;1.65;;;;;;;24.04;48.18;100400.22;5057366;28;20663;-64
2022/07/26 03:31:24;;;;;;;6.35;1.83;;;;;;;23.88;48.52;100400.94;5056821;28;20211;-64
2022/07/26 03:33:52;;;;;;;3.75;1.67;;;;;;;23.91;48.23;100393.19;5060016;28;20230;-62
2022/07/26 03:36:20;;;;;;;3.05;1.60;;;;;;;24.01;48.15;100395.31;5060175;28;20203;-63
2022/07/26 03:38:49;;;;;;;3.17;1.70;;;;;;;24.01;47.87;100395.31;5060168;28;20222;-63
2022/07/26 03:41:16;;;;;;;3.00;1.70;;;;;;;23.96;48.17;100396.00;5056098;28;20211;-63
2022/07/26 03:43:44;;;;;;;3.05;1.65;;;;;;;23.86;48.26;100398.47;5055061;28;20213;-63
2022/07/26 03:46:12;;;;;;;5.05;1.70;;;;;;;23.79;48.96;100403.19;5064391;28;20796;-61
2022/07/26 03:48:40;;;;;;;6.30;2.00;;;;;;;24.06;48.16;100402.69;5065358;28;20446;-63
2022/07/26 03:51:07;;;;;;;5.97;1.90;;;;;;;23.90;48.27;100404.25;5062221;28;22569;-63
2022/07/26 03:53:35;;;;;;;12.02;2.28;;;;;;;23.86;48.06;100394.94;5074566;28;20266;-63
2022/07/26 03:58:50;;;;;;;5.45;2.10;;;;;;;23.91;47.76;100400.50;5086285;28;20210;-63
2022/07/26 04:01:17;;;;;;;5.33;1.90;;;;;;;23.91;48.00;100405.91;5082556;28;20212;-63
2022/07/26 04:03:45;;;;;;;3.88;1.98;;;;;;;23.92;47.90;100402.13;5084505;28;20677;-63
2022/07/26 04:06:15;;;;;;;5.45;1.92;;;;;;;23.97;47.86;100413.91;5079957;28;20245;-63
2022/07/26 04:08:42;;;;;;;5.10;1.77;;;;;;;23.96;47.96;100408.72;5086390;28;20202;-62
2022/07/26 04:11:11;;;;;;;5.93;1.70;;;;;;;;;;5098247;28;20581;-63
2022/07/26 04:13:39;;;;;;;9.07;2.20;;;;;;;23.90;47.83;100409.66;5088741;28;20195;-62
2022/07/26 04:16:08;;;;;;;6.63;1.83;;;;;;;23.88;48.23;100414.50;5088888;28;20236;-64
2022/07/26 04:18:36;;;;;;;5.83;1.80;;;;;;;23.82;47.93;100418.97;5083977;28;20571;-64
2022/07/26 04:21:04;;;;;;;3.87;1.90;;;;;;;23.80;48.00;100412.97;5083044;28;20199;-63
2022/07/26 04:23:31;;;;;;;3.80;1.87;;;;;;;23.85;47.77;100420.38;5080474;28;21177;-63
2022/07/26 04:25:59;;;;;;;5.25;1.60;;;;;;;23.89;47.56;100426.97;5081999;28;20224;-63
2022/07/26 04:28:28;;;;;;;3.83;1.73;;;;;;;23.91;47.45;100422.16;5083888;28;20221;-63
2022/07/26 04:30:56;;;;;;;3.93;1.97;;;;;;;23.92;47.52;100423.81;5085356;28;20663;-63
2022/07/26 04:33:24;;;;;;;3.63;1.33;;;;;;;23.85;47.49;100423.06;5084052;28;20250;-63
2022/07/26 04:35:52;;;;;;;6.40;2.07;;;;;;;23.80;47.58;100421.09;5082626;28;20237;-63
2022/07/26 04:38:20;;;;;;;5.47;1.60;;;;;;;23.81;47.58;100421.91;5079780;28;20199;-63
2022/07/26 04:40:49;;;;;;;5.67;1.70;;;;;;;23.82;47.43;100434.41;5081382;28;20299;-64
2022/07/26 04:43:17;;;;;;;4.40;1.73;;;;;;;23.84;47.46;100430.38;5085748;28;20233;-64
2022/07/26 04:45:46;;;;;;;3.37;1.60;;;;;;;23.84;47.38;100426.84;5090181;28;20735;-64
2022/07/26 04:48:15;;;;;;;3.60;1.60;;;;;;;23.84;47.50;100434.97;5087296;28;20211;-64
2022/07/26 04:50:43;;;;;;;4.40;1.57;;;;;;;23.84;47.48;100440.38;5087622;28;20297;-64
2022/07/26 04:53:10;;;;;;;2.90;1.43;;;;;;;23.83;47.39;100436.88;5085529;28;20234;-64
2022/07/26 04:55:39;;;;;;;6.63;2.00;;;;;;;23.84;47.22;100437.66;5087864;28;20313;-63
2022/07/26 04:58:07;;;;;;;6.03;1.67;;;;;;;23.85;47.31;100439.31;5086989;28;20205;-62
2022/07/26 05:00:35;;;;;;;7.07;1.33;;;;;;;23.84;47.27;100440.38;5086814;28;20293;-63
2022/07/26 05:03:24;;;;;;;6.27;1.40;;;;;;;23.79;47.21;100440.28;5084726;28;20202;-63
2022/07/26 05:05:52;;;;;;;6.70;1.30;;;;;;;23.76;47.44;100438.03;5087898;28;20233;-63
2022/07/26 05:08:20;;;;;;;4.37;1.60;;;;;;;23.65;47.63;100444.28;5087609;28;20225;-63
2022/07/26 05:10:48;;;;;;;2.30;1.17;;;;;;;23.62;47.76;100445.56;5088111;28;20675;-64
2022/07/26 05:13:22;;;;;;;4.43;1.50;;;;;;;23.65;47.54;100444.28;5082044;28;20482;-63
2022/07/26 05:15:57;;;;;;;8.00;1.40;;;;;;;23.70;47.63;100447.09;5084514;28;20257;-62
2022/07/26 05:18:28;;;;;;;4.83;1.47;;;;;;;23.71;47.31;100455.00;5086242;28;20285;-63
2022/07/26 05:21:09;;;;;;;3.83;1.33;;;;;;;23.66;47.44;100452.16;5086558;28;20286;-63
2022/07/26 05:23:37;;;;;;;8.13;1.70;;;;;;;23.67;47.54;100461.09;5084676;28;20206;-62
2022/07/26 05:26:04;;;;;;;5.13;1.40;;;;;;;23.72;47.41;100459.34;5086386;28;20206;-64
2022/07/26 05:28:32;;;;;;;8.60;2.00;;;;;;;23.75;47.77;100463.47;5089478;28;20297;-62
2022/07/26 05:31:00;;;;;;;3.80;1.50;;;;;;;23.72;47.88;100467.47;5085884;28;20214;-63
2022/07/26 05:33:29;;;;;;;4.03;1.40;;;;;;;23.69;48.17;100467.94;5084274;28;20742;-63
2022/07/26 05:35:57;;;;;;;7.13;1.90;;;;;;;23.72;48.00;100472.06;5089568;28;20237;-63
2022/07/26 05:38:26;;;;;;;4.87;1.57;;;;;;;23.77;47.76;100466.75;5085624;28;20482;-63
2022/07/26 05:40:53;;;;;;;6.40;1.50;;;;;;;23.82;47.82;100473.13;5083080;28;20202;-63
2022/07/26 05:43:21;;;;;;;6.03;1.90;;;;;;;23.88;47.97;100465.94;5083424;28;20575;-63
2022/07/26 05:45:49;;;;;;;4.57;1.50;;;;;;;23.86;47.76;100463.47;5085693;28;20199;-63
2022/07/26 05:48:17;;;;;;;5.80;1.40;;;;;;;23.90;47.84;100469.25;5086554;28;20226;-63
2022/07/26 05:50:47;;;;;;;5.03;1.63;;;;;;;;;;5091119;28;20211;-64
2022/07/26 05:53:16;;;;;;;5.20;1.60;;;;;;;23.96;47.72;100474.53;5081860;28;20306;-64
2022/07/26 05:55:44;;;;;;;6.30;1.60;;;;;;;23.99;47.58;100481.38;5084837;28;20230;-64
2022/07/26 05:58:12;;;;;;;6.30;1.77;;;;;;;23.88;47.52;100484.91;5086620;28;20199;-63
2022/07/26 06:00:39;;;;;;;4.90;1.10;;;;;;;23.94;47.13;100481.25;5085570;28;20727;-63
2022/07/26 06:06:03;;;;;;;4.80;1.33;;;;;;;24.01;46.18;100487.38;5075253;28;20221;-63
2022/07/26 06:08:30;;;;;;;6.40;1.50;;;;;;;24.10;45.78;100485.94;5083503;28;20209;-64
2022/07/26 06:11:00;;;;;;;3.80;1.23;;;;;;;24.10;45.78;100487.84;5083958;28;20944;-64
2022/07/26 06:13:28;;;;;;;2.90;0.90;;;;;;;24.08;45.60;100488.09;5084448;28;20203;-63
2022/07/26 06:15:56;;;;;;;3.50;1.20;;;;;;;24.02;45.24;100489.00;5083051;28;20233;-63
2022/07/26 06:18:23;;;;;;;4.87;1.03;;;;;;;24.01;45.02;100482.75;5085277;28;20776;-63
2022/07/26 06:20:51;;;;;;;7.37;1.40;;;;;;;24.04;45.05;100486.91;5088652;28;20213;-63
2022/07/26 06:23:21;;;;;;;3.80;1.23;;;;;;;24.09;44.90;100489.75;5083775;28;20908;-63
2022/07/26 06:26:01;;;;;;;1.97;1.10;;;;;;;24.08;44.76;100488.09;5084125;28;20217;-62
2022/07/26 06:28:29;;;;;;;6.13;1.27;;;;;;;24.05;45.04;100493.97;5085279;28;20210;-63
2022/07/26 06:30:57;;;;;;;2.80;1.08;;;;;;;24.03;45.03;100487.94;5083443;28;20228;-64
2022/07/26 06:33:25;;;;;;;2.92;1.33;;;;;;;24.06;45.03;100484.78;5080776;28;20227;-63
2022/07/26 06:35:52;;;;;;;4.20;1.15;;;;;;;24.10;44.87;100496.78;5086467;28;20223;-62
2022/07/26 06:38:22;;;;;;;4.00;1.00;;;;;;;24.08;45.23;100498.91;5089539;28;20238;-64
2022/07/26 06:40:49;;;;;;;5.13;1.07;;;;;;;24.17;45.04;100502.94;5086164;28;20210;-63
2022/07/26 06:43:17;;;;;;;2.92;0.90;;;;;;;24.11;44.69;100505.72;5082052;28;20211;-64
2022/07/26 06:45:45;;;;;;;2.83;0.80;;;;;;;24.08;45.14;100509.75;5084923;28;20294;-64
2022/07/26 06:48:13;;;;;;;6.53;1.52;;;;;;;24.11;45.11;100500.31;5087745;28;20215;-63
2022/07/26 06:50:41;;;;;;;5.53;1.27;;;;;;;24.15;45.39;100505.03;5089147;28;20211;-64
2022/07/26 06:53:09;;;;;;;5.00;1.27;;;;;;;24.18;45.36;100514.59;5080799;28;20261;-64
2022/07/26 06:55:38;;;;;;;4.75;1.00;;;;;;;24.24;45.06;100514.50;5084280;28;20226;-64
2022/07/26 06:58:06;;;;;;;3.75;1.00;;;;;;;24.31;44.98;100509.75;5084977;28;20199;-64
2022/07/26 07:00:33;;;;;;;3.85;1.23;;;;;;;24.37;44.83;100522.34;5082552;28;20572;-62
2022/07/26 07:03:01;;;;;;;6.18;1.10;;;;;;;24.40;44.88;100518.34;5080496;28;20211;-63
2022/07/26 07:05:29;;;;;;;4.55;1.38;;;;;;;24.43;45.01;100517.06;5085290;28;20590;-64
2022/07/26 07:07:58;;;;;;;10.50;1.40;;;;;;;24.53;45.00;100518.13;5084509;28;20546;-64
2022/07/26 07:10:25;;;;;;;3.55;1.00;;;;;;;24.54;44.99;100513.53;5080615;28;20214;-64
2022/07/26 07:12:54;;;;;;;2.05;0.90;;;;;;;24.54;44.87;100513.53;5087700;28;20668;-63
2022/07/26 07:15:22;;;;;;;3.22;1.13;;;;;;;24.56;44.77;100514.09;5086586;28;20234;-64
2022/07/26 07:17:51;;;;;;;3.78;1.00;;;;;;;24.63;44.59;100512.06;5082049;28;20744;-64
2022/07/26 07:20:19;;;;;;;3.33;1.10;;;;;;;24.61;45.02;100514.22;5082108;28;21107;-63
2022/07/26 07:22:47;;;;;;;5.47;1.13;;;;;;;24.61;44.82;100511.50;5086841;28;20806;-63
2022/07/26 07:25:14;;;;;;;7.47;1.10;;;;;;;24.64;45.02;100508.28;5082815;28;22004;-63
2022/07/26 07:27:42;;;;;;;4.43;1.17;;;;;;;24.72;44.73;100508.75;5087594;28;20587;-64
2022/07/26 07:30:13;;;;;;;6.97;1.23;;;;;;;24.75;44.86;100507.44;5078336;28;20567;-64
2022/07/26 07:32:41;;;;;;;4.43;0.95;;;;;;;24.80;44.88;100507.56;5086080;28;20230;-64
2022/07/26 07:35:11;;;;;;;5.30;0.98;;;;;;;24.80;44.69;100506.75;5080504;28;20282;-63
2022/07/26 07:37:39;;;;;;;2.38;0.80;;;;;;;24.87;44.69;100500.09;5082915;28;20707;-63
2022/07/26 07:40:21;;;;;;;4.57;0.95;;;;;;;24.88;44.01;100490.91;5079179;28;20207;-64
2022/07/26 07:42:49;;;;;;;3.42;0.93;;;;;;;24.93;44.25;100492.91;5083626;28;20681;-63
2022/07/26 07:45:18;;;;;;;1.88;0.80;;;;;;;24.93;44.23;100493.75;5082862;28;20691;-63
2022/07/26 07:47:46;;;;;;;1.90;0.90;;;;;;;24.97;44.47;100491.38;5087116;28;20676;-64
2022/07/26 07:50:14;;;;;;;2.55;0.95;;;;;;;25.01;44.54;100501.50;5081208;28;20207;-65
2022/07/26 07:52:44;;;;;;;2.40;1.20;;;;;;;25.03;44.28;100501.25;5083966;28;20790;-64
2022/07/26 07:55:12;;;;;;;4.38;0.82;;;;;;;25.00;44.01;100504.44;5081410;28;20230;-63
2022/07/26 07:58:00;;;;;;;5.00;0.75;;;;;;;25.04;43.73;100490.16;5079735;28;20237;-64
2022/07/26 08:00:29;;;;;;;7.32;1.33;;;;;;;25.02;43.83;100495.00;5086823;28;20596;-63
2022/07/26 08:02:57;;;;;;;2.28;1.05;;;;;;;25.10;43.91;100494.63;5085199;28;22302;-63
2022/07/26 08:05:24;;;;;;;3.75;0.90;;;;;;;25.17;43.58;100493.63;5082600;28;20215;-64
2022/07/26 08:07:52;;;;;;;6.05;1.92;;;;;;;25.28;42.95;100492.75;5082456;28;20260;-63
2022/07/26 08:10:20;;;;;;;5.60;1.38;;;;;;;25.32;43.07;100494.75;5082596;28;20213;-62
2022/07/26 08:12:48;;;;;;;7.30;1.75;;;;;;;25.40;42.87;100488.94;5082326;28;20202;-63
2022/07/26 08:15:18;;;;;;;6.82;1.33;;;;;;;25.50;42.90;100485.56;5081600;28;20235;-64
2022/07/26 08:17:49;;;;;;;8.00;1.45;;;;;;;25.64;42.49;100481.47;5087434;28;20226;-63
2022/07/26 08:20:21;;;;;;;6.57;1.10;;;;;;;25.71;42.55;100492.16;5083722;28;20208;-64
2022/07/26 08:22:52;;;;;;;2.25;0.80;;;;;;;25.80;42.32;100486.06;5086359;28;20285;-63
2022/07/26 08:25:20;;;;;;;4.32;1.05;;;;;;;25.85;42.34;100485.34;5085598;28;20202;-63
2022/07/26 08:27:48;;;;;;;3.45;1.00;;;;;;;25.94;42.32;100492.00;5087014;28;20203;-64
2022/07/26 08:30:30;;;;;;;3.95;1.10;;;;;;;26.02;41.52;100493.47;5083937;28;20217;-65
2022/07/26 08:33:00;;;;;;;3.05;0.80;;;;;;;26.01;41.76;100489.13;5083250;28;20325;-63
2022/07/26 08:35:29;;;;;;;3.70;0.98;;;;;;;26.09;41.48;100494.13;5090024;28;20771;-63
2022/07/26 08:37:57;;;;;;;3.03;0.80;;;;;;;26.08;41.36;100489.75;5089157;28;20226;-64
2022/07/26 08:40:25;;;;;;;5.03;1.00;;;;;;;26.11;41.47;100500.97;5085268;28;21136;-63
2022/07/26 08:42:54;;;;;;;4.10;1.05;;;;;;;26.16;41.36;100502.91;5088455;28;20656;-65
2022/07/26 08:45:23;;;;;;;5.18;1.20;;;;;;;26.25;40.92;100493.25;5088298;28;20206;-64
2022/07/26 08:47:51;;;;;;;2.25;0.77;;;;;;;26.36;40.75;100499.69;5084588;28;20203;-64
2022/07/26 08:50:41;;;;;;;5.75;1.05;;;;;;;26.46;41.04;100499.84;5086417;28;20205;-63
2022/07/26 08:53:11;;;;;;;5.25;0.98;;;;;;;26.41;40.67;100502.47;5078855;28;20227;-64
2022/07/26 08:55:39;;;;;;;3.50;0.98;;;;;;;26.34;40.56;100505.38;5069584;28;20199;-64
2022/07/26 08:58:27;;;;;;;2.83;1.10;;;;;;;26.27;40.91;100499.31;5062505;28;20230;-64
2022/07/26 09:01:06;;;;;;;2.47;0.85;;;;;;;26.26;40.83;100496.81;5049717;28;20706;-64
2022/07/26 09:03:36;;;;;;;2.13;0.73;;;;;;;26.07;40.83;100502.53;5056925;28;20295;-64
2022/07/26 09:06:14;;;;;;;3.70;0.73;;;;;;;26.10;40.57;100501.22;5061606;28;20207;-63
2022/07/26 09:08:44;;;;;;;1.90;0.75;;;;;;;26.15;41.09;100506.72;5071998;28;20202;-63
2022/07/26 09:11:27;;;;;;;2.13;1.00;;;;;;;26.18;40.60;100503.50;5065749;28;20238;-63
2022/07/26 09:13:57;;;;;;;5.63;0.98;;;;;;;26.29;40.42;100505.31;5065108;28;20241;-63
2022/07/26 09:16:25;;;;;;;3.67;1.27;;;;;;;26.30;40.35;100508.88;5060998;28;20873;-64
2022/07/26 09:18:53;;;;;;;3.75;0.68;;;;;;;26.38;40.25;100505.72;5062732;28;20230;-63
2022/07/26 09:21:30;;;;;;;5.07;0.93;;;;;;;26.31;40.41;100519.47;5064043;28;20239;-64
2022/07/26 09:23:59;;;;;;;5.53;1.50;;;;;;;26.27;39.77;100518.34;5063537;28;20296;-64
2022/07/26 09:26:28;;;;;;;2.63;0.90;;;;;;;26.23;39.71;100506.28;5057757;28;20290;-64
2022/07/26 09:29:04;;;;;;;1.88;0.82;;;;;;;26.33;39.44;100508.34;5069818;28;20206;-64
2022/07/26 09:31:33;;;;;;;3.58;0.90;;;;;;;26.49;39.30;100502.03;5061174;28;20846;-64
2022/07/26 09:34:02;;;;;;;3.58;0.85;;;;;;;26.67;39.45;100512.63;5067804;28;20321;-64
2022/07/26 09:36:32;;;;;;;2.85;0.75;;;;;;;26.79;39.08;100507.88;5064257;28;20212;-62
2022/07/26 09:39:02;;;;;;;2.65;0.70;;;;;;;26.92;38.81;100512.13;5066554;28;20539;-65
2022/07/26 09:41:31;;;;;;;2.05;0.80;;;;;;;26.90;39.04;100514.25;5066791;28;20303;-63
2022/07/26 09:44:00;;;;;;;1.95;0.55;;;;;;;26.74;38.52;100507.00;5065136;28;20198;-63
2022/07/26 09:46:29;;;;;;;2.78;0.88;;;;;;;26.51;38.41;100508.88;5068749;28;20199;-64
2022/07/26 09:48:59;;;;;;;2.28;0.63;;;;;;;26.45;39.05;100509.91;5069593;28;20198;-64
2022/07/26 09:51:42;;;;;;;2.13;0.70;;;;;;;26.59;38.92;100515.78;5064520;28;20200;-64
2022/07/26 09:54:12;;;;;;;2.30;0.80;;;;;;;26.75;38.79;100511.34;5062054;28;20234;-64
2022/07/26 09:56:44;;;;;;;4.93;1.23;;;;;;;26.80;38.38;100514.13;5064950;28;20237;-63
2022/07/26 09:59:13;;;;;;;4.45;0.77;;;;;;;26.91;37.89;100518.66;5065667;28;20614;-63
2022/07/26 10:01:41;;;;;;;2.83;1.60;;;;;;;27.12;38.46;100506.09;5065340;28;20660;-63
2022/07/26 10:04:10;;;;;;;5.97;1.00;;;;;;;27.15;37.86;100509.13;5058473;28;20207;-63
2022/07/26 10:06:40;;;;;;;1.85;0.65;;;;;;;27.06;37.98;100510.66;5065464;28;20211;-64
2022/07/26 10:09:08;;;;;;;3.17;0.93;;;;;;;26.89;38.27;100521.59;5060320;28;20578;-64
2022/07/26 10:11:42;;;;;;;1.45;0.70;;;;;;;26.79;38.25;100510.59;5062555;28;20208;-63
2022/07/26 10:14:37;;;;;;;1.98;0.90;;;;;;;26.74;38.36;100507.00;5059021;28;20495;-64
2022/07/26 10:17:44;;;;;;;2.42;0.88;;;;;;;26.73;38.85;100513.50;5060755;28;20768;-64
2022/07/26 10:20:45;;;;;;;2.03;0.70;;;;;;;26.64;38.69;100520.47;5061161;28;20207;-63
2022/07/26 10:23:40;;;;;;;5.85;0.80;;;;;;;26.61;38.17;100513.63;5060368;28;20203;-63
2022/07/26 10:26:10;;;;;;;2.65;0.80;;;;;;;26.58;37.99;100520.38;5061577;28;20210;-63
2022/07/26 10:28:41;;;;;;;3.50;1.17;;;;;;;26.71;38.29;100510.22;5066611;28;20573;-64
2022/07/26 10:31:29;;;;;;;1.85;0.90;;;;;;;27.03;38.21;100513.88;5059617;28;20234;-63
2022/07/26 10:34:00;;;;;;;1.17;0.70;;;;;;;27.15;37.89;100511.03;5063059;28;20234;-63
2022/07/26 10:36:32;;;;;;;3.70;0.60;;;;;;;27.12;37.51;100517.81;5063835;28;20212;-63
2022/07/26 10:39:08;;;;;;;3.75;0.75;;;;;;;27.04;37.18;100518.25;5060250;28;20317;-64
2022/07/26 10:41:41;;;;;;;1.67;0.63;;;;;;;27.02;37.45;100517.69;5059688;28;20208;-64
2022/07/26 10:44:25;;;;;;;8.52;1.33;;;;;;;27.14;37.34;100507.47;5065163;28;20290;-63
2022/07/26 10:47:18;;;;;;;2.63;0.70;;;;;;;27.26;36.83;100504.63;5060703;28;20199;-63
2022/07/26 10:49:56;;;;;;;3.35;0.65;;;;;;;27.22;36.09;100500.75;5065501;28;20199;-64
2022/07/26 10:52:26;;;;;;;3.75;1.05;;;;;;;27.06;36.35;100515.28;5062163;28;20274;-64
2022/07/26 10:55:17;;;;;;;6.63;1.23;;;;;;;27.06;36.78;100502.50;5064567;28;20735;-63
2022/07/26 10:57:48;;;;;;;3.60;0.90;;;;;;;27.29;37.21;100498.66;5064527;28;20214;-63
2022/07/26 11:00:21;;;;;;;1.67;0.80;;;;;;;27.40;36.66;100499.56;5062698;28;20218;-64
2022/07/26 11:02:54;;;;;;;2.35;0.80;;;;;;;27.42;36.30;100502.84;5066188;28;20210;-63
2022/07/26 11:05:27;;;;;;;4.68;0.82;;;;;;;27.48;36.62;100501.81;5061129;28;20308;-63
2022/07/26 11:07:58;;;;;;;2.45;0.63;;;;;;;27.54;36.46;100498.09;5064726;28;20231;-64
2022/07/26 11:10:30;;;;;;;1.65;0.60;;;;;;;27.46;36.34;100501.25;5064490;28;20208;-64
2022/07/26 11:13:06;;;;;;;5.45;1.20;;;;;;;27.41;36.17;100493.03;5064645;28;20214;-64
2022/07/26 11:15:35;;;;;;;3.50;0.80;;;;;;;27.24;36.61;100496.72;5064093;28;20305;-64
2022/07/26 11:18:26;;;;;;;2.28;0.80;;;;;;;27.07;37.29;100508.78;5062335;28;20230;-63
2022/07/26 11:20:56;;;;;;;3.83;0.77;;;;;;;26.94;36.83;100499.91;5063618;28;20192;-68
2022/07/26 11:23:32;;;;;;;1.88;0.90;;;;;;;26.89;37.14;100509.91;5063986;28;20667;-63
2022/07/26 11:26:04;;;;;;;2.78;0.75;;;;;;;26.90;37.18;100495.22;5064234;28;20195;-63
2022/07/26 11:28:54;;;;;;;1.77;0.60;;;;;;;26.92;37.22;100499.34;5061735;28;20341;-63
2022/07/26 11:31:27;;;;;;;4.50;0.70;;;;;;;26.90;37.53;100495.22;5065275;28;20669;-63
2022/07/26 11:34:17;;;;;;;5.95;0.80;;;;;;;26.83;37.50;100494.56;5059967;28;20231;-64
2022/07/26 11:36:46;;;;;;;3.35;0.73;;;;;;;26.80;37.33;100489.66;5066369;28;20223;-63
2022/07/26 11:39:15;;;;;;;4.25;1.05;;;;;;;26.81;37.58;100492.13;5061244;28;20222;-63
2022/07/26 11:41:44;;;;;;;2.28;1.05;;;;;;;26.82;38.21;100495.69;5064350;28;20212;-63
2022/07/26 11:44:16;;;;;;;4.10;1.08;;;;;;;26.81;38.50;100503.00;5070933;28;20203;-63
2022/07/26 11:46:46;;;;;;;2.92;1.00;;;;;;;26.76;38.69;100494.78;5059843;28;20214;-63